Clarkson Valley, Missouri
Current Conditions -  °F | °C
As of 6:54 AM on Thursday 27 Nov 2014 (Local Time) from KSUS Reporting Station
Overcast Overcast  
Wind Chill: 19°   Ceiling: 1700
Heat Index: 30°   Visibility: 9mi
Dew Point: 25°   Wind: 16mph
Humidity: 82%   Direction: 320°NW
Pressure: 30.43"   Gusts: 22mph
Location:  38.6517°N, 90.5361°W
Report Text: KSUS 271254Z 32014G19KT 9SM OVC017 M01/M04 A3043 RMK AO2 SLP314 T10111039
Loading
Personal Weather Stations






























Interactive Weather Map New forecast layout! Learn more

10-Day Weather Forecast

Advertisements
Track Severe Weather on mobile